sensor_id;sensor_type;location;lat;lon;timestamp;pressure;altitude;pressure_sealevel;temperature;humidity
19672;BME280;9983;51.114;13.788;2023-02-28T00:02:42;100716.63;;;2.76;100.00
19672;BME280;9983;51.114;13.788;2023-02-28T00:07:43;100722.66;;;2.64;100.00
19672;BME280;9983;51.114;13.788;2023-02-28T00:12:43;100713.53;;;2.11;100.00
19672;BME280;9983;51.114;13.788;2023-02-28T00:17:44;100720.78;;;2.66;100.00
19672;BME280;9983;51.114;13.788;2023-02-28T00:22:46;100718.78;;;2.55;100.00
19672;BME280;9983;51.114;13.788;2023-02-28T00:27:48;100712.34;;;2.45;100.00
19672;BME280;9983;51.114;13.788;2023-02-28T00:32:49;100713.75;;;2.37;100.00
19672;BME280;9983;51.114;13.788;2023-02-28T00:37:50;100706.56;;;2.39;100.00
19672;BME280;9983;51.114;13.788;2023-02-28T00:42:50;100713.97;;;2.48;100.00
19672;BME280;9983;51.114;13.788;2023-02-28T00:47:50;100720.03;;;2.50;100.00
19672;BME280;9983;51.114;13.788;2023-02-28T00:52:51;100717.69;;;2.15;100.00
19672;BME280;9983;51.114;13.788;2023-02-28T00:57:51;100713.34;;;2.14;100.00
19672;BME280;9983;51.114;13.788;2023-02-28T01:02:51;100702.94;;;2.11;100.00
19672;BME280;9983;51.114;13.788;2023-02-28T01:07:52;100701.22;;;2.10;100.00
19672;BME280;9983;51.114;13.788;2023-02-28T01:12:52;100703.72;;;2.13;100.00
19672;BME280;9983;51.114;13.788;2023-02-28T01:17:52;100711.22;;;1.91;100.00
19672;BME280;9983;51.114;13.788;2023-02-28T01:22:52;100709.50;;;1.90;100.00
19672;BME280;9983;51.114;13.788;2023-02-28T01:27:53;100704.94;;;1.32;100.00
19672;BME280;9983;51.114;13.788;2023-02-28T01:32:53;100702.59;;;1.58;100.00
19672;BME280;9983;51.114;13.788;2023-02-28T01:37:53;100702.41;;;1.61;100.00
19672;BME280;9983;51.114;13.788;2023-02-28T01:42:53;100702.06;;;1.67;100.00
19672;BME280;9983;51.114;13.788;2023-02-28T01:47:57;100702.31;;;1.62;100.00
19672;BME280;9983;51.114;13.788;2023-02-28T01:53:00;100698.81;;;1.62;100.00
19672;BME280;9983;51.114;13.788;2023-02-28T01:58:04;100692.03;;;1.58;100.00
19672;BME280;9983;51.114;13.788;2023-02-28T02:03:07;100695.91;;;1.05;100.00
19672;BME280;9983;51.114;13.788;2023-02-28T02:08:11;100689.47;;;0.93;100.00
19672;BME280;9983;51.114;13.788;2023-02-28T02:18:43;100687.38;;;1.00;100.00
19672;BME280;9983;51.114;13.788;2023-02-28T02:34:47;100693.00;;;0.45;100.00
19672;BME280;9983;51.114;13.788;2023-02-28T02:40:15;100675.34;;;0.79;100.00
19672;BME280;9983;51.114;13.788;2023-02-28T02:45:25;100681.31;;;0.98;100.00
19672;BME280;9983;51.114;13.788;2023-02-28T02:50:31;100674.13;;;0.68;100.00
19672;BME280;9983;51.114;13.788;2023-02-28T02:55:38;100682.78;;;0.39;100.00
19672;BME280;9983;51.114;13.788;2023-02-28T03:00:43;100691.06;;;-0.19;100.00
19672;BME280;9983;51.114;13.788;2023-02-28T03:05:49;100693.81;;;0.30;100.00
19672;BME280;9983;51.114;13.788;2023-02-28T03:10:51;100697.06;;;0.00;100.00
19672;BME280;9983;51.114;13.788;2023-02-28T03:16:22;100696.50;;;0.28;100.00
19672;BME280;9983;51.114;13.788;2023-02-28T03:21:34;100686.88;;;0.60;100.00
19672;BME280;9983;51.114;13.788;2023-02-28T03:26:45;100688.06;;;0.55;100.00
19672;BME280;9983;51.114;13.788;2023-02-28T03:32:03;100682.44;;;0.45;100.00
19672;BME280;9983;51.114;13.788;2023-02-28T03:37:09;100676.31;;;0.45;100.00
19672;BME280;9983;51.114;13.788;2023-02-28T03:42:15;100680.72;;;0.44;100.00
19672;BME280;9983;51.114;13.788;2023-02-28T03:52:22;100702.31;;;0.35;100.00
19672;BME280;9983;51.114;13.788;2023-02-28T03:57:47;100705.72;;;0.37;100.00
19672;BME280;9983;51.114;13.788;2023-02-28T04:02:50;100701.72;;;0.30;100.00
19672;BME280;9983;51.114;13.788;2023-02-28T04:07:52;100700.59;;;0.34;100.00
19672;BME280;9983;51.114;13.788;2023-02-28T04:12:54;100706.88;;;0.16;100.00
19672;BME280;9983;51.114;13.788;2023-02-28T04:17:54;100707.63;;;-0.34;100.00
19672;BME280;9983;51.114;13.788;2023-02-28T04:22:54;100721.53;;;-0.49;100.00
19672;BME280;9983;51.114;13.788;2023-02-28T04:27:54;100714.97;;;-0.23;100.00
19672;BME280;9983;51.114;13.788;2023-02-28T04:32:55;100725.13;;;-0.33;100.00
19672;BME280;9983;51.114;13.788;2023-02-28T04:37:55;100726.69;;;-0.65;100.00
19672;BME280;9983;51.114;13.788;2023-02-28T04:42:55;100732.28;;;-0.90;100.00
19672;BME280;9983;51.114;13.788;2023-02-28T04:47:55;100726.19;;;-0.54;100.00
19672;BME280;9983;51.114;13.788;2023-02-28T04:52:56;100729.03;;;-1.34;100.00
19672;BME280;9983;51.114;13.788;2023-02-28T04:57:56;100722.78;;;-0.75;100.00
19672;BME280;9983;51.114;13.788;2023-02-28T05:02:56;100722.94;;;-0.78;100.00
19672;BME280;9983;51.114;13.788;2023-02-28T05:07:57;100724.06;;;-0.84;100.00
19672;BME280;9983;51.114;13.788;2023-02-28T05:12:57;100722.41;;;-0.85;100.00
19672;BME280;9983;51.114;13.788;2023-02-28T05:17:57;100726.13;;;-1.67;100.00
19672;BME280;9983;51.114;13.788;2023-02-28T05:22:58;100725.81;;;-1.20;100.00
19672;BME280;9983;51.114;13.788;2023-02-28T05:27:59;100740.16;;;-1.27;100.00
19672;BME280;9983;51.114;13.788;2023-02-28T05:32:59;100736.63;;;-1.26;100.00
19672;BME280;9983;51.114;13.788;2023-02-28T05:38:00;100735.03;;;-1.30;100.00
19672;BME280;9983;51.114;13.788;2023-02-28T05:43:00;100739.75;;;-1.18;100.00
19672;BME280;9983;51.114;13.788;2023-02-28T05:48:01;100755.19;;;-1.90;100.00
19672;BME280;9983;51.114;13.788;2023-02-28T05:53:01;100742.88;;;-1.68;100.00
19672;BME280;9983;51.114;13.788;2023-02-28T05:58:01;100745.56;;;-1.69;100.00
19672;BME280;9983;51.114;13.788;2023-02-28T06:03:02;100747.16;;;-1.67;100.00
19672;BME280;9983;51.114;13.788;2023-02-28T06:08:02;100756.75;;;-1.45;100.00
19672;BME280;9983;51.114;13.788;2023-02-28T06:13:03;100766.19;;;-1.21;100.00
19672;BME280;9983;51.114;13.788;2023-02-28T06:18:04;100778.63;;;-2.26;100.00
19672;BME280;9983;51.114;13.788;2023-02-28T06:23:04;100765.97;;;-1.56;100.00
19672;BME280;9983;51.114;13.788;2023-02-28T06:28:04;100771.13;;;-1.52;100.00
19672;BME280;9983;51.114;13.788;2023-02-28T06:33:05;100779.66;;;-1.47;100.00
19672;BME280;9983;51.114;13.788;2023-02-28T06:38:05;100786.16;;;-1.17;100.00
19672;BME280;9983;51.114;13.788;2023-02-28T06:43:05;100799.94;;;-1.10;100.00
19672;BME280;9983;51.114;13.788;2023-02-28T06:48:05;100801.84;;;-1.75;100.00
19672;BME280;9983;51.114;13.788;2023-02-28T06:53:06;100807.66;;;-1.67;100.00
19672;BME280;9983;51.114;13.788;2023-02-28T06:58:06;100817.19;;;-2.06;100.00
19672;BME280;9983;51.114;13.788;2023-02-28T07:03:14;100817.38;;;-1.28;100.00
19672;BME280;9983;51.114;13.788;2023-02-28T07:08:15;100825.41;;;-0.73;100.00
19672;BME280;9983;51.114;13.788;2023-02-28T07:13:15;100817.84;;;-0.25;100.00
19672;BME280;9983;51.114;13.788;2023-02-28T07:18:16;100821.91;;;-0.18;100.00
19672;BME280;9983;51.114;13.788;2023-02-28T07:23:16;100814.69;;;-0.14;100.00
19672;BME280;9983;51.114;13.788;2023-02-28T07:28:16;100818.16;;;0.05;100.00
19672;BME280;9983;51.114;13.788;2023-02-28T07:33:17;100816.03;;;0.81;100.00
19672;BME280;9983;51.114;13.788;2023-02-28T07:38:17;100811.34;;;1.34;100.00
19672;BME280;9983;51.114;13.788;2023-02-28T07:43:18;100816.25;;;1.42;100.00
19672;BME280;9983;51.114;13.788;2023-02-28T07:48:18;100825.13;;;1.57;100.00
19672;BME280;9983;51.114;13.788;2023-02-28T07:53:18;100822.75;;;2.13;100.00
19672;BME280;9983;51.114;13.788;2023-02-28T07:58:18;100816.69;;;2.11;100.00
19672;BME280;9983;51.114;13.788;2023-02-28T08:03:20;100825.72;;;2.53;99.96
19672;BME280;9983;51.114;13.788;2023-02-28T08:08:21;100822.53;;;2.62;96.12
19672;BME280;9983;51.114;13.788;2023-02-28T08:13:21;100825.41;;;2.87;93.55
19672;BME280;9983;51.114;13.788;2023-02-28T08:18:22;100829.09;;;3.13;90.87
19672;BME280;9983;51.114;13.788;2023-02-28T08:23:23;100827.66;;;3.36;86.90
19672;BME280;9983;51.114;13.788;2023-02-28T08:28:23;100823.50;;;3.46;87.52
19672;BME280;9983;51.114;13.788;2023-02-28T08:33:25;100825.94;;;3.63;88.01
19672;BME280;9983;51.114;13.788;2023-02-28T08:38:26;100824.56;;;3.85;84.02
19672;BME280;9983;51.114;13.788;2023-02-28T08:43:27;100825.97;;;4.17;81.22
19672;BME280;9983;51.114;13.788;2023-02-28T08:48:30;100837.66;;;4.27;77.81
19672;BME280;9983;51.114;13.788;2023-02-28T08:53:31;100841.91;;;4.17;74.11
19672;BME280;9983;51.114;13.788;2023-02-28T08:58:32;100839.09;;;4.06;69.82
19672;BME280;9983;51.114;13.788;2023-02-28T09:03:32;100840.22;;;4.29;66.74
19672;BME280;9983;51.114;13.788;2023-02-28T09:08:33;100834.88;;;4.16;67.32
19672;BME280;9983;51.114;13.788;2023-02-28T09:13:33;100837.94;;;4.49;65.31
19672;BME280;9983;51.114;13.788;2023-02-28T09:18:35;100833.44;;;4.37;64.32
19672;BME280;9983;51.114;13.788;2023-02-28T09:23:37;100831.78;;;4.62;62.76
19672;BME280;9983;51.114;13.788;2023-02-28T09:28:38;100832.50;;;4.38;62.48
19672;BME280;9983;51.114;13.788;2023-02-28T09:33:38;100829.25;;;4.60;63.71
19672;BME280;9983;51.114;13.788;2023-02-28T09:38:39;100826.28;;;4.77;61.95
19672;BME280;9983;51.114;13.788;2023-02-28T09:43:44;100829.47;;;4.95;61.80
19672;BME280;9983;51.114;13.788;2023-02-28T09:48:47;100822.06;;;5.00;60.76
19672;BME280;9983;51.114;13.788;2023-02-28T09:53:48;100821.19;;;5.12;58.71
19672;BME280;9983;51.114;13.788;2023-02-28T09:58:55;100824.50;;;5.65;57.92
19672;BME280;9983;51.114;13.788;2023-02-28T10:03:59;100821.16;;;5.50;55.78
19672;BME280;9983;51.114;13.788;2023-02-28T10:09:11;100818.75;;;5.71;54.51
19672;BME280;9983;51.114;13.788;2023-02-28T10:14:19;100820.22;;;5.75;54.11
19672;BME280;9983;51.114;13.788;2023-02-28T10:19:30;100826.91;;;5.93;54.23
19672;BME280;9983;51.114;13.788;2023-02-28T10:24:37;100820.19;;;6.59;54.01
19672;BME280;9983;51.114;13.788;2023-02-28T10:29:42;100824.72;;;6.46;51.52
19672;BME280;9983;51.114;13.788;2023-02-28T10:34:43;100825.81;;;6.90;52.14
19672;BME280;9983;51.114;13.788;2023-02-28T10:39:45;100819.25;;;6.82;51.35
19672;BME280;9983;51.114;13.788;2023-02-28T10:44:46;100834.50;;;6.69;52.99
19672;BME280;9983;51.114;13.788;2023-02-28T10:49:48;100819.06;;;6.03;53.07
19672;BME280;9983;51.114;13.788;2023-02-28T10:54:49;100822.41;;;5.45;53.45
19672;BME280;9983;51.114;13.788;2023-02-28T11:00:08;100817.53;;;5.88;53.96
19672;BME280;9983;51.114;13.788;2023-02-28T11:05:30;100820.38;;;5.97;52.98
19672;BME280;9983;51.114;13.788;2023-02-28T11:10:31;100807.16;;;5.36;55.31
19672;BME280;9983;51.114;13.788;2023-02-28T11:15:34;100807.13;;;5.72;55.09
19672;BME280;9983;51.114;13.788;2023-02-28T11:20:35;100806.13;;;5.98;54.37
19672;BME280;9983;51.114;13.788;2023-02-28T11:25:37;100806.44;;;6.99;52.61
19672;BME280;9983;51.114;13.788;2023-02-28T11:30:40;100798.69;;;7.40;48.75
19672;BME280;9983;51.114;13.788;2023-02-28T11:35:41;100788.00;;;7.40;49.83
19672;BME280;9983;51.114;13.788;2023-02-28T11:40:48;100788.94;;;7.73;48.18
19672;BME280;9983;51.114;13.788;2023-02-28T11:51:35;100767.91;;;9.36;43.19
19672;BME280;9983;51.114;13.788;2023-02-28T11:57:01;100765.81;;;10.18;40.62
19672;BME280;9983;51.114;13.788;2023-02-28T12:02:25;100770.09;;;8.70;42.75
19672;BME280;9983;51.114;13.788;2023-02-28T12:13:21;100769.81;;;8.31;44.97
19672;BME280;9983;51.114;13.788;2023-02-28T12:18:35;100776.97;;;7.99;45.59
19672;BME280;9983;51.114;13.788;2023-02-28T12:23:53;100766.59;;;7.85;46.72
19672;BME280;9983;51.114;13.788;2023-02-28T12:29:08;100770.22;;;7.84;46.51
19672;BME280;9983;51.114;13.788;2023-02-28T12:34:16;100763.03;;;7.41;47.45
19672;BME280;9983;51.114;13.788;2023-02-28T12:39:23;100766.91;;;7.48;46.61
19672;BME280;9983;51.114;13.788;2023-02-28T12:44:49;100768.31;;;7.63;49.24
19672;BME280;9983;51.114;13.788;2023-02-28T12:50:07;100756.91;;;7.61;46.88
19672;BME280;9983;51.114;13.788;2023-02-28T12:55:16;100759.63;;;8.25;46.83
19672;BME280;9983;51.114;13.788;2023-02-28T13:00:23;100751.31;;;8.40;47.19
19672;BME280;9983;51.114;13.788;2023-02-28T13:05:50;100740.75;;;8.59;45.40
19672;BME280;9983;51.114;13.788;2023-02-28T13:10:56;100744.53;;;8.77;44.85
19672;BME280;9983;51.114;13.788;2023-02-28T13:21:01;100748.53;;;8.62;43.87
19672;BME280;9983;51.114;13.788;2023-02-28T13:26:02;100748.06;;;8.57;43.08
19672;BME280;9983;51.114;13.788;2023-02-28T13:31:04;100738.94;;;9.79;43.90
19672;BME280;9983;51.114;13.788;2023-02-28T13:41:40;100714.34;;;10.80;40.24
19672;BME280;9983;51.114;13.788;2023-02-28T13:51:48;100713.47;;;10.80;40.26
19672;BME280;9983;51.114;13.788;2023-02-28T13:56:59;100713.19;;;10.46;40.89
19672;BME280;9983;51.114;13.788;2023-02-28T14:07:39;100705.44;;;9.95;42.11
19672;BME280;9983;51.114;13.788;2023-02-28T14:17:56;100697.97;;;10.74;40.75
19672;BME280;9983;51.114;13.788;2023-02-28T14:23:04;100687.06;;;10.38;40.95
19672;BME280;9983;51.114;13.788;2023-02-28T14:28:40;100675.94;;;10.80;40.59
19672;BME280;9983;51.114;13.788;2023-02-28T14:39:20;100674.66;;;9.99;41.26
19672;BME280;9983;51.114;13.788;2023-02-28T14:44:27;100675.81;;;11.09;40.41
19672;BME280;9983;51.114;13.788;2023-02-28T14:49:29;100675.66;;;11.37;40.24
19672;BME280;9983;51.114;13.788;2023-02-28T14:54:31;100685.56;;;11.37;38.51
19672;BME280;9983;51.114;13.788;2023-02-28T14:59:34;100682.97;;;11.45;38.79
19672;BME280;9983;51.114;13.788;2023-02-28T15:04:35;100691.22;;;11.34;38.85
19672;BME280;9983;51.114;13.788;2023-02-28T15:09:35;100686.78;;;11.15;38.90
19672;BME280;9983;51.114;13.788;2023-02-28T15:14:36;100689.22;;;10.72;40.08
19672;BME280;9983;51.114;13.788;2023-02-28T15:19:41;100683.56;;;10.28;40.61
19672;BME280;9983;51.114;13.788;2023-02-28T15:24:48;100685.59;;;8.58;42.92
19672;BME280;9983;51.114;13.788;2023-02-28T15:29:54;100690.78;;;8.80;43.78
19672;BME280;9983;51.114;13.788;2023-02-28T15:34:55;100686.63;;;7.29;47.18
19672;BME280;9983;51.114;13.788;2023-02-28T15:39:57;100687.16;;;7.66;49.23
19672;BME280;9983;51.114;13.788;2023-02-28T15:44:58;100687.66;;;7.06;48.45
19672;BME280;9983;51.114;13.788;2023-02-28T15:50:10;100690.81;;;6.89;48.50
19672;BME280;9983;51.114;13.788;2023-02-28T15:55:21;100695.16;;;6.78;50.59
19672;BME280;9983;51.114;13.788;2023-02-28T16:00:25;100698.25;;;6.17;53.49
19672;BME280;9983;51.114;13.788;2023-02-28T16:05:28;100684.53;;;6.67;50.44
19672;BME280;9983;51.114;13.788;2023-02-28T16:10:31;100674.56;;;6.47;50.80
19672;BME280;9983;51.114;13.788;2023-02-28T16:15:37;100694.66;;;6.40;51.66
19672;BME280;9983;51.114;13.788;2023-02-28T16:20:41;100698.81;;;5.38;56.34
19672;BME280;9983;51.114;13.788;2023-02-28T16:25:44;100692.97;;;5.69;56.05
19672;BME280;9983;51.114;13.788;2023-02-28T16:30:46;100698.63;;;5.28;57.93
19672;BME280;9983;51.114;13.788;2023-02-28T16:35:46;100702.59;;;4.35;64.44
19672;BME280;9983;51.114;13.788;2023-02-28T16:40:49;100699.81;;;3.99;67.80
19672;BME280;9983;51.114;13.788;2023-02-28T16:45:55;100701.63;;;3.71;72.73
19672;BME280;9983;51.114;13.788;2023-02-28T16:50:55;100693.53;;;3.60;76.63
19672;BME280;9983;51.114;13.788;2023-02-28T16:55:56;100698.13;;;3.44;76.40
19672;BME280;9983;51.114;13.788;2023-02-28T17:00:56;100696.03;;;3.49;76.99
19672;BME280;9983;51.114;13.788;2023-02-28T17:05:56;100705.56;;;2.41;82.35
19672;BME280;9983;51.114;13.788;2023-02-28T17:10:57;100703.16;;;2.37;84.23
19672;BME280;9983;51.114;13.788;2023-02-28T17:15:57;100700.75;;;2.76;82.82
19672;BME280;9983;51.114;13.788;2023-02-28T17:20:58;100709.25;;;2.81;81.38
19672;BME280;9983;51.114;13.788;2023-02-28T17:25:58;100719.88;;;1.93;86.59
19672;BME280;9983;51.114;13.788;2023-02-28T17:30:58;100707.63;;;1.92;87.68
19672;BME280;9983;51.114;13.788;2023-02-28T17:35:59;100713.00;;;1.45;90.64
19672;BME280;9983;51.114;13.788;2023-02-28T17:40:59;100715.66;;;1.90;89.36
19672;BME280;9983;51.114;13.788;2023-02-28T17:45:59;100712.84;;;1.32;92.76
19672;BME280;9983;51.114;13.788;2023-02-28T17:51:01;100712.34;;;1.41;95.60
19672;BME280;9983;51.114;13.788;2023-02-28T17:56:01;100715.28;;;1.97;90.39
19672;BME280;9983;51.114;13.788;2023-02-28T18:01:01;100702.28;;;1.32;94.52
19672;BME280;9983;51.114;13.788;2023-02-28T18:06:02;100698.72;;;1.33;95.34
19672;BME280;9983;51.114;13.788;2023-02-28T18:11:03;100699.13;;;2.01;90.15
19672;BME280;9983;51.114;13.788;2023-02-28T18:16:03;100691.78;;;2.06;90.81
19672;BME280;9983;51.114;13.788;2023-02-28T18:21:04;100696.84;;;1.95;91.86
19672;BME280;9983;51.114;13.788;2023-02-28T18:26:06;100703.56;;;1.71;93.55
19672;BME280;9983;51.114;13.788;2023-02-28T18:31:08;100699.16;;;1.71;93.36
19672;BME280;9983;51.114;13.788;2023-02-28T18:36:09;100700.41;;;1.19;96.79
19672;BME280;9983;51.114;13.788;2023-02-28T18:41:10;100699.88;;;1.43;96.32
19672;BME280;9983;51.114;13.788;2023-02-28T18:46:13;100705.84;;;1.77;92.66
19672;BME280;9983;51.114;13.788;2023-02-28T18:51:14;100705.44;;;1.23;96.89
19672;BME280;9983;51.114;13.788;2023-02-28T18:56:17;100693.22;;;0.73;98.55
19672;BME280;9983;51.114;13.788;2023-02-28T19:01:23;100696.81;;;1.04;97.77
19672;BME280;9983;51.114;13.788;2023-02-28T19:06:26;100695.50;;;1.42;94.09
19672;BME280;9983;51.114;13.788;2023-02-28T19:11:28;100698.47;;;1.68;92.52
19672;BME280;9983;51.114;13.788;2023-02-28T19:16:28;100707.75;;;1.75;90.25
19672;BME280;9983;51.114;13.788;2023-02-28T19:21:29;100709.50;;;1.90;89.53
19672;BME280;9983;51.114;13.788;2023-02-28T19:26:29;100706.19;;;1.09;92.47
19672;BME280;9983;51.114;13.788;2023-02-28T19:31:30;100710.25;;;1.62;89.90
19672;BME280;9983;51.114;13.788;2023-02-28T19:36:30;100708.69;;;1.74;88.80
19672;BME280;9983;51.114;13.788;2023-02-28T19:41:30;100705.28;;;1.72;88.30
19672;BME280;9983;51.114;13.788;2023-02-28T19:46:31;100700.66;;;1.30;91.97
19672;BME280;9983;51.114;13.788;2023-02-28T19:51:31;100714.53;;;1.18;92.08
19672;BME280;9983;51.114;13.788;2023-02-28T19:56:33;100714.22;;;1.08;92.44
19672;BME280;9983;51.114;13.788;2023-02-28T20:01:33;100721.09;;;1.10;92.48
19672;BME280;9983;51.114;13.788;2023-02-28T20:06:33;100719.84;;;1.33;90.45
19672;BME280;9983;51.114;13.788;2023-02-28T20:11:34;100719.13;;;0.83;94.15
19672;BME280;9983;51.114;13.788;2023-02-28T20:16:34;100717.13;;;0.70;95.49
19672;BME280;9983;51.114;13.788;2023-02-28T20:21:34;100715.44;;;0.69;94.53
19672;BME280;9983;51.114;13.788;2023-02-28T20:26:35;100720.75;;;0.52;95.63
19672;BME280;9983;51.114;13.788;2023-02-28T20:31:36;100736.09;;;0.61;96.37
19672;BME280;9983;51.114;13.788;2023-02-28T20:36:37;100709.22;;;0.70;95.24
19672;BME280;9983;51.114;13.788;2023-02-28T20:41:37;100721.88;;;0.97;93.14
19672;BME280;9983;51.114;13.788;2023-02-28T20:46:37;100721.72;;;1.00;92.08
19672;BME280;9983;51.114;13.788;2023-02-28T20:51:37;100715.56;;;0.84;92.73
19672;BME280;9983;51.114;13.788;2023-02-28T20:56:39;100715.09;;;0.75;93.26
19672;BME280;9983;51.114;13.788;2023-02-28T21:01:39;100724.22;;;0.86;92.57
19672;BME280;9983;51.114;13.788;2023-02-28T21:06:41;100721.34;;;0.90;90.61
19672;BME280;9983;51.114;13.788;2023-02-28T21:11:42;100726.28;;;0.81;91.10
19672;BME280;9983;51.114;13.788;2023-02-28T21:16:43;100728.72;;;0.00;96.34
19672;BME280;9983;51.114;13.788;2023-02-28T21:21:44;100724.06;;;-0.12;100.00
19672;BME280;9983;51.114;13.788;2023-02-28T21:26:47;100715.69;;;0.15;97.54
19672;BME280;9983;51.114;13.788;2023-02-28T21:31:49;100723.94;;;-0.09;97.77
19672;BME280;9983;51.114;13.788;2023-02-28T21:36:50;100725.72;;;0.08;97.71
19672;BME280;9983;51.114;13.788;2023-02-28T21:41:51;100714.59;;;0.02;95.60
19672;BME280;9983;51.114;13.788;2023-02-28T21:46:51;100712.41;;;-0.25;99.76
19672;BME280;9983;51.114;13.788;2023-02-28T21:51:55;100725.94;;;-0.86;100.00
19672;BME280;9983;51.114;13.788;2023-02-28T21:56:56;100724.03;;;-0.46;100.00
19672;BME280;9983;51.114;13.788;2023-02-28T22:01:56;100717.84;;;-0.45;100.00
19672;BME280;9983;51.114;13.788;2023-02-28T22:06:56;100710.09;;;-0.67;100.00
19672;BME280;9983;51.114;13.788;2023-02-28T22:11:56;100710.59;;;-0.95;100.00
19672;BME280;9983;51.114;13.788;2023-02-28T22:16:57;100709.28;;;-0.67;100.00
19672;BME280;9983;51.114;13.788;2023-02-28T22:21:57;100715.78;;;-0.57;100.00
19672;BME280;9983;51.114;13.788;2023-02-28T22:26:57;100726.19;;;-0.54;100.00
19672;BME280;9983;51.114;13.788;2023-02-28T22:31:58;100723.16;;;-0.11;95.90
19672;BME280;9983;51.114;13.788;2023-02-28T22:36:58;100718.81;;;-0.12;95.98
19672;BME280;9983;51.114;13.788;2023-02-28T22:41:58;100723.22;;;-0.12;96.35
19672;BME280;9983;51.114;13.788;2023-02-28T22:46:58;100715.53;;;-0.34;97.61
19672;BME280;9983;51.114;13.788;2023-02-28T22:51:59;100727.03;;;-1.47;100.00
19672;BME280;9983;51.114;13.788;2023-02-28T22:56:59;100729.44;;;-1.62;100.00
19672;BME280;9983;51.114;13.788;2023-02-28T23:01:59;100727.31;;;-1.54;100.00
19672;BME280;9983;51.114;13.788;2023-02-28T23:06:59;100719.19;;;-1.10;100.00
19672;BME280;9983;51.114;13.788;2023-02-28T23:11:59;100730.91;;;-1.17;100.00
19672;BME280;9983;51.114;13.788;2023-02-28T23:17:00;100735.72;;;-1.66;100.00
19672;BME280;9983;51.114;13.788;2023-02-28T23:22:01;100728.81;;;-1.09;100.00
19672;BME280;9983;51.114;13.788;2023-02-28T23:27:03;100736.53;;;-0.68;100.00
19672;BME280;9983;51.114;13.788;2023-02-28T23:32:04;100739.75;;;-0.81;100.00
19672;BME280;9983;51.114;13.788;2023-02-28T23:37:05;100744.69;;;-1.31;100.00
19672;BME280;9983;51.114;13.788;2023-02-28T23:42:05;100739.75;;;-1.18;100.00
19672;BME280;9983;51.114;13.788;2023-02-28T23:47:05;100743.09;;;-1.54;100.00
19672;BME280;9983;51.114;13.788;2023-02-28T23:52:05;100744.94;;;-1.56;100.00
19672;BME280;9983;51.114;13.788;2023-02-28T23:57:06;100735.84;;;-1.48;100.00
